Time;durP1;ratioP1;P1;durP2;ratioP2;P2;SDS_P1;SDS_P2;PMS_P1;PMS_P2;Temp;Humidity;BMP_temperature;BMP_pressure;BME280_temperature;BME280_humidity;BME280_pressure;Samples;Min_cycle;Max_cycle;Signal;HPM_P1;HPM_P2
2021/08/09 00:01:17;;;;;;;7.00;4.90;;;12.70;94.40;;;11.40;85.41;98154.59;5097283;28;20463;-83
2021/08/09 00:03:45;;;;;;;4.97;4.57;;;12.70;94.70;;;11.72;85.78;98208.72;5063638;28;20456;-82
2021/08/09 00:06:13;;;;;;;6.40;4.80;;;12.70;95.00;;;11.70;86.15;98209.97;5098584;28;20454;-83
2021/08/09 00:08:39;;;;;;;5.20;4.70;;;12.70;95.40;;;11.57;85.78;98195.47;5097899;28;20466;-82
2021/08/09 00:11:06;;;;;;;5.30;4.80;;;12.70;95.60;;;11.67;86.25;98205.00;5098524;28;20534;-82
2021/08/09 00:13:35;;;;;;;4.40;4.10;;;12.60;95.80;;;11.64;86.28;98208.16;5099835;28;20531;-83
2021/08/09 00:16:01;;;;;;;5.40;4.10;;;12.60;95.90;;;11.48;86.87;98173.25;5099683;28;21066;-82
2021/08/09 00:18:30;;;;;;;7.10;4.63;;;12.60;96.00;;;11.49;86.58;98179.53;5097500;28;20450;-83
2021/08/09 00:20:57;;;;;;;4.93;4.47;;;12.60;96.40;;;11.57;87.11;98189.25;5105409;28;20444;-82
2021/08/09 00:23:25;;;;;;;7.23;4.60;;;12.60;96.50;;;11.50;87.12;98197.41;5100367;28;20463;-82
2021/08/09 00:25:52;;;;;;;7.43;4.80;;;12.60;96.70;;;11.39;86.97;98195.38;5097742;28;20814;-82
2021/08/09 00:28:19;;;;;;;5.10;4.53;;;12.40;96.60;;;11.36;86.57;98199.34;5098202;28;20438;-84
2021/08/09 00:30:45;;;;;;;6.63;4.83;;;12.40;96.70;;;11.32;87.26;98207.06;5098310;28;20482;-83
2021/08/09 00:33:12;;;;;;;6.10;5.37;;;12.40;97.30;;;11.30;87.96;98206.47;5099672;28;20537;-82
2021/08/09 00:35:41;;;;;;;6.30;5.07;;;12.30;98.10;;;11.22;87.89;98198.59;5097650;28;20466;-84
2021/08/09 00:38:10;;;;;;;6.00;4.60;;;12.30;99.30;;;11.33;88.05;98205.19;5099852;28;20515;-84
2021/08/09 00:40:37;;;;;;;5.40;4.40;;;12.30;99.90;;;11.11;88.56;98159.53;5096935;28;20977;-82
2021/08/09 00:43:05;;;;;;;7.33;5.07;;;12.30;99.90;;;11.33;88.79;98195.22;5099834;28;20472;-83
2021/08/09 00:45:32;;;;;;;6.17;5.60;;;12.30;99.90;;;11.34;89.39;98199.56;5064056;28;20440;-83
2021/08/09 00:47:59;;;;;;;5.57;5.07;;;12.40;99.90;;;11.39;88.61;98201.63;5108488;28;20468;-82
2021/08/09 00:50:27;;;;;;;5.23;4.73;;;12.40;99.90;;;11.41;89.28;98210.34;5101863;28;20441;-82
2021/08/09 00:52:55;;;;;;;5.80;5.30;;;12.40;99.90;;;11.39;89.14;98209.75;5112288;28;20547;-82
2021/08/09 00:55:23;;;;;;;9.00;4.47;;;12.40;99.90;;;11.47;89.26;98204.06;5097086;28;20463;-83
2021/08/09 00:57:50;;;;;;;5.60;4.97;;;12.50;99.90;;;11.48;89.50;98207.63;5082746;28;20454;-83
2021/08/09 01:00:17;;;;;;;6.20;5.60;;;12.40;99.90;;;11.49;89.24;98193.03;5115786;28;20493;-84
2021/08/09 01:02:44;;;;;;;7.30;4.93;;;12.50;99.90;;;11.24;88.95;98158.63;5110594;28;20970;-82
2021/08/09 01:05:13;;;;;;;6.33;5.10;;;12.50;99.90;;;11.52;89.74;98203.44;5104866;28;20442;-83
2021/08/09 01:07:50;;;;;;;6.30;5.70;;;12.50;99.90;;;11.46;89.90;98193.47;5104258;28;20534;-82
2021/08/09 01:10:24;;;;;;;6.37;5.30;;;12.50;99.90;;;11.52;89.27;98208.84;5099364;28;20440;-82
2021/08/09 01:13:03;;;;;;;5.10;4.70;;;12.50;99.90;;;11.31;89.67;98172.97;5103118;28;20435;-82
2021/08/09 01:15:33;;;;;;;5.20;4.70;;;12.50;99.90;;;11.55;89.41;98207.59;5105348;28;20477;-84
2021/08/09 01:18:04;;;;;;;8.93;5.73;;;12.50;99.90;;;11.53;89.59;98188.03;5103392;28;20464;-82
2021/08/09 01:20:48;;;;;;;5.13;4.77;;;12.60;99.90;;;11.60;89.30;98202.34;5064363;28;20456;-83
2021/08/09 01:23:53;;;;;;;5.30;4.80;;;12.60;99.90;;;11.50;89.50;98186.59;5099749;28;21057;-82
2021/08/09 01:26:35;;;;;;;5.17;4.77;;;12.60;99.90;;;11.47;89.53;98190.53;5039485;28;20674;-83
2021/08/09 01:29:08;;;;;;;5.17;4.67;;;12.50;99.90;;;11.45;89.46;98183.72;5094711;28;20536;-83
2021/08/09 01:31:43;;;;;;;4.90;4.50;;;12.50;99.90;;;11.33;89.44;98167.31;5099077;28;20441;-83
2021/08/09 01:34:12;;;;;;;6.13;4.70;;;12.50;99.90;;;11.45;89.21;98187.22;5097257;28;20993;-82
2021/08/09 01:36:41;;;;;;;7.27;4.17;;;12.50;99.90;;;11.45;89.45;98187.22;5083943;28;20479;-83
2021/08/09 01:39:10;;;;;;;5.20;4.80;;;12.50;99.90;;;11.44;89.93;98190.97;5100479;28;20858;-83
2021/08/09 01:41:38;;;;;;;5.30;4.80;;;12.50;99.90;;;11.49;89.51;98198.47;5102848;28;20439;-82
2021/08/09 01:44:08;;;;;;;5.23;4.83;;;12.50;99.90;;;11.49;89.62;98187.63;5102514;28;20458;-82
2021/08/09 01:46:37;;;;;;;7.13;5.43;;;12.50;99.90;;;11.47;89.48;98193.25;5101949;28;21259;-82
2021/08/09 01:49:09;;;;;;;5.40;5.00;;;12.50;99.90;;;11.41;89.27;98185.16;5096696;28;20475;-82
2021/08/09 01:51:37;;;;;;;5.83;5.20;;;12.50;99.90;;;11.46;89.37;98183.47;5084367;28;21038;-83
2021/08/09 01:54:04;;;;;;;5.77;5.37;;;12.50;99.90;;;11.41;89.54;98185.16;5103363;28;20475;-83
2021/08/09 01:56:33;;;;;;;5.53;4.83;;;12.40;99.90;;;11.36;89.82;98177.69;5102756;28;20455;-83
2021/08/09 01:59:00;;;;;;;6.07;4.90;;;12.40;99.90;;;11.30;89.58;98170.47;5102884;28;20512;-83
2021/08/09 02:01:28;;;;;;;6.77;5.47;;;12.40;99.90;;;11.29;89.67;98169.63;5102038;28;20458;-83
2021/08/09 02:03:55;;;;;;;6.33;5.10;;;12.30;99.90;;;10.94;89.91;98126.75;5100505;28;20478;-82
2021/08/09 02:06:22;;;;;;;6.03;5.30;;;12.30;99.90;;;11.30;90.29;98190.25;5101835;28;20482;-83
2021/08/09 02:08:50;;;;;;;5.00;4.50;;;12.30;99.90;;;11.04;90.14;98151.47;5081096;28;20454;-82
2021/08/09 02:11:22;;;;;;;5.40;5.00;;;12.20;99.90;;;10.93;90.15;98157.53;5104869;28;20451;-82
2021/08/09 02:13:52;;;;;;;5.70;5.20;;;12.20;99.90;;;11.13;91.01;98198.00;5099096;28;20462;-82
2021/08/09 02:16:24;;;;;;;6.30;5.80;;;12.20;99.90;;;11.04;90.06;98193.88;5083600;28;20443;-83
2021/08/09 02:18:58;;;;;;;6.70;5.43;;;12.10;99.90;;;11.05;91.14;98199.06;5099578;28;20532;-83
2021/08/09 02:21:33;;;;;;;6.87;5.03;;;12.10;99.90;;;10.76;90.95;98159.88;5101345;28;20479;-82
2021/08/09 02:24:07;;;;;;;6.20;5.43;;;12.00;99.90;;;11.01;91.30;98200.56;5076550;28;20470;-82
2021/08/09 02:26:37;;;;;;;8.13;5.37;;;12.00;99.90;;;10.91;91.00;98183.94;5100359;28;20439;-83
2021/08/09 02:29:12;;;;;;;5.97;5.03;;;11.90;99.90;;;10.84;90.50;98183.13;5075604;28;20472;-83
2021/08/09 02:31:44;;;;;;;7.70;4.40;;;11.90;99.90;;;10.95;91.65;98187.06;5081255;28;20436;-82
2021/08/09 02:34:17;;;;;;;5.93;5.43;;;11.90;99.90;;;10.94;92.13;98193.50;5082273;28;20452;-83
2021/08/09 02:36:44;;;;;;;7.10;6.20;;;11.90;99.90;;;10.93;91.57;98205.38;5101490;28;20452;-83
2021/08/09 02:39:13;;;;;;;6.93;5.90;;;11.80;99.90;;;10.96;91.48;98205.75;5102365;28;20523;-82
2021/08/09 02:41:41;;;;;;;8.93;5.53;;;11.90;99.90;;;10.87;91.82;98185.44;5102832;28;20539;-82
2021/08/09 02:44:09;;;;;;;6.30;5.77;;;11.90;99.90;;;10.88;91.41;98181.69;5099155;28;20456;-83
2021/08/09 02:46:39;;;;;;;6.93;5.80;;;11.90;99.90;;;10.85;91.87;98185.63;5096141;28;20520;-83
2021/08/09 02:49:07;;;;;;;6.33;4.80;;;11.90;99.90;;;10.70;91.52;98180.50;5082878;28;20450;-84
2021/08/09 02:51:36;;;;;;;6.27;5.67;;;11.90;99.90;;;10.88;91.37;98200.59;5088951;28;20471;-84
2021/08/09 02:54:05;;;;;;;6.50;5.90;;;11.90;99.90;;;10.54;91.96;98153.91;5110475;28;20439;-83
2021/08/09 02:56:34;;;;;;;7.20;5.43;;;11.90;99.90;;;10.70;91.40;98179.66;5110133;28;20436;-84
2021/08/09 02:59:02;;;;;;;6.17;5.57;;;11.80;99.90;;;10.71;91.68;98203.78;5088132;28;20505;-83
2021/08/09 03:01:33;;;;;;;7.07;5.47;;;11.80;99.90;;;10.80;91.10;98217.03;5104009;28;20452;-83
2021/08/09 03:04:01;;;;;;;6.00;5.40;;;11.80;99.90;;;10.62;91.08;98186.09;5100857;28;20475;-83
2021/08/09 03:06:29;;;;;;;6.20;5.60;;;11.90;99.90;;;10.74;90.63;98208.75;5110682;28;20512;-82
2021/08/09 03:08:59;;;;;;;8.70;5.83;;;11.80;99.90;;;10.68;91.57;98204.16;5104055;28;20516;-81
2021/08/09 03:11:26;;;;;;;6.40;5.90;;;11.70;99.90;;;10.63;91.55;98212.94;5099958;28;20468;-82
2021/08/09 03:13:53;;;;;;;6.07;5.50;;;11.70;99.90;;;10.60;91.63;98221.44;5107859;28;20451;-83
2021/08/09 03:16:20;;;;;;;6.57;5.90;;;11.60;99.90;;;10.44;91.02;98201.13;5107722;28;21614;-82
2021/08/09 03:18:47;;;;;;;6.80;5.53;;;11.60;99.90;;;10.50;91.88;98212.94;5110605;28;20519;-81
2021/08/09 03:21:14;;;;;;;7.00;6.03;;;11.50;99.90;;;10.49;91.84;98219.41;5102146;28;20440;-82
2021/08/09 03:23:41;;;;;;;6.40;5.80;;;11.50;99.90;;;10.44;92.36;98217.31;5100826;28;20522;-82
2021/08/09 03:26:11;;;;;;;6.53;5.53;;;11.50;99.90;;;10.43;91.88;98207.56;5101202;28;20454;-82
2021/08/09 03:28:38;;;;;;;6.63;5.93;;;11.60;99.90;;;10.49;92.48;98209.41;5085150;28;20458;-82
2021/08/09 03:31:06;;;;;;;7.93;6.20;;;11.50;99.90;;;10.49;91.53;98217.50;5089363;28;20483;-83
2021/08/09 03:33:33;;;;;;;7.10;6.40;;;11.50;99.90;;;10.40;92.47;98202.56;5091879;28;20456;-83
2021/08/09 03:36:00;;;;;;;7.53;6.93;;;11.50;99.90;;;10.41;92.47;98225.84;5081522;28;20830;-82
2021/08/09 03:38:27;;;;;;;9.07;6.53;;;11.60;99.90;;;10.27;92.58;98211.47;5098935;28;20818;-82
2021/08/09 03:40:56;;;;;;;7.10;6.40;;;11.40;99.90;;;10.46;92.94;98228.75;5080846;28;20444;-83
2021/08/09 03:43:25;;;;;;;8.90;7.33;;;11.40;99.90;;;10.42;92.56;98230.22;5091056;28;20463;-82
2021/08/09 03:45:53;;;;;;;8.60;6.87;;;11.40;99.90;;;10.43;92.58;98228.31;5093810;28;20823;-83
2021/08/09 03:48:20;;;;;;;7.33;5.93;;;11.50;99.90;;;10.39;92.29;98236.00;5075091;28;20459;-83
2021/08/09 03:50:49;;;;;;;10.43;6.70;;;11.40;99.90;;;10.40;92.76;98237.66;5093809;28;20444;-82
2021/08/09 03:53:16;;;;;;;8.57;7.50;;;11.40;99.90;;;10.42;93.06;98238.31;5095660;28;20486;-82
2021/08/09 03:55:42;;;;;;;8.03;7.10;;;11.40;99.90;;;10.32;92.67;98227.91;5094462;28;20447;-83
2021/08/09 03:58:10;;;;;;;8.13;6.60;;;11.50;99.90;;;10.37;92.19;98227.25;5096467;28;21169;-83
2021/08/09 04:00:40;;;;;;;8.43;6.33;;;11.40;99.90;;;10.54;92.54;98251.16;5103071;28;20448;-82
2021/08/09 04:03:07;;;;;;;11.13;6.83;;;11.50;99.90;;;10.41;92.60;98231.25;5101268;28;20463;-82
2021/08/09 04:05:35;;;;;;;11.43;6.60;;;11.50;99.90;;;10.51;92.45;98257.84;5098974;28;20463;-83
2021/08/09 04:08:02;;;;;;;9.50;6.30;;;11.50;99.90;;;10.43;91.90;98234.56;5098000;28;20527;-82
2021/08/09 04:10:28;;;;;;;6.23;5.73;;;11.60;99.90;;;10.30;91.77;98219.16;5098581;28;20471;-82
2021/08/09 04:12:55;;;;;;;8.77;6.50;;;11.60;99.90;;;10.59;92.21;98254.09;5098474;28;20447;-82
2021/08/09 04:15:23;;;;;;;6.10;5.60;;;11.60;99.90;;;10.66;91.65;98259.47;5081488;28;20483;-82
2021/08/09 04:17:52;;;;;;;7.10;5.30;;;11.70;99.90;;;10.68;91.05;98246.59;5099080;28;20538;-82
2021/08/09 04:20:19;;;;;;;8.10;6.43;;;11.70;99.90;;;10.82;91.24;98255.47;5076054;28;20451;-83
2021/08/09 04:22:49;;;;;;;6.43;5.43;;;12.00;99.90;;;11.07;89.59;98241.28;5100657;28;20931;-82
2021/08/09 04:25:16;;;;;;;6.03;5.30;;;12.50;99.90;;;11.23;88.63;98212.94;5100783;28;20951;-82
2021/08/09 04:27:43;;;;;;;4.90;4.50;;;13.20;95.10;;;11.59;87.20;98230.44;5087067;28;20442;-82
2021/08/09 04:30:12;;;;;;;5.10;4.70;;;13.60;91.80;;;11.52;85.99;98198.00;5100221;28;20460;-82
2021/08/09 04:32:40;;;;;;;7.97;5.20;;;13.60;91.00;;;11.71;85.30;98185.41;5080639;28;20461;-83
2021/08/09 04:35:12;;;;;;;5.27;4.77;;;14.20;88.80;;;12.63;83.69;98245.53;5099011;28;20456;-84
2021/08/09 04:37:41;;;;;;;5.43;3.70;;;14.90;85.50;;;12.74;82.15;98214.16;5098944;28;20531;-82
2021/08/09 04:40:12;;;;;;;4.30;3.93;;;15.40;82.20;;;13.22;81.71;98241.59;5080949;28;20448;-82
2021/08/09 04:42:39;;;;;;;5.80;4.13;;;15.90;79.60;;;13.37;80.14;98243.88;5100683;28;20468;-82
2021/08/09 04:45:07;;;;;;;4.03;3.47;;;16.30;76.60;;;13.57;79.75;98233.66;5082476;28;20509;-82
2021/08/09 04:47:34;;;;;;;4.83;4.43;;;16.50;75.00;;;13.73;78.88;98231.34;5092971;28;20479;-83
2021/08/09 04:50:01;;;;;;;5.10;3.60;;;16.70;73.60;;;13.84;78.30;98254.16;5089575;28;20504;-83
2021/08/09 04:52:33;;;;;;;4.57;4.17;;;16.80;72.30;;;14.01;77.42;98241.56;5099464;28;20448;-84
2021/08/09 04:55:00;;;;;;;3.63;3.27;;;16.90;71.60;;;14.19;77.42;98245.28;5068480;28;20512;-82
2021/08/09 04:57:27;;;;;;;4.30;3.90;;;17.10;71.30;;;14.18;76.90;98238.19;5093607;28;20877;-83
2021/08/09 04:59:56;;;;;;;4.60;3.83;;;17.10;70.60;;;14.23;76.98;98237.50;5097913;28;20455;-83
2021/08/09 05:02:23;;;;;;;5.50;3.50;;;16.80;70.90;;;13.99;77.38;98234.72;5079852;28;20454;-83
2021/08/09 05:04:50;;;;;;;5.53;3.67;;;16.20;73.00;;;14.11;77.35;98237.47;5096826;28;20500;-84
2021/08/09 05:07:18;;;;;;;4.60;3.73;;;16.20;73.50;;;13.66;77.94;98214.31;5090068;28;20501;-83
2021/08/09 05:09:46;;;;;;;4.93;3.90;;;15.90;74.20;;;13.51;78.86;98210.13;5097100;28;20865;-83
2021/08/09 05:12:13;;;;;;;4.63;4.00;;;15.50;76.70;;;13.29;79.87;98204.31;5096908;28;20459;-83
2021/08/09 05:14:40;;;;;;;6.50;3.97;;;15.10;79.50;;;13.19;80.52;98232.00;5080090;28;20444;-83
2021/08/09 05:17:07;;;;;;;4.63;4.20;;;14.70;81.50;;;13.03;80.91;98218.00;5097859;28;20454;-82
2021/08/09 05:19:34;;;;;;;5.73;3.77;;;14.60;83.10;;;13.08;80.75;98222.75;5097970;28;20444;-82
2021/08/09 05:22:01;;;;;;;7.10;4.07;;;14.60;83.40;;;12.98;80.97;98207.00;5098527;28;21244;-83
2021/08/09 05:24:28;;;;;;;5.63;4.17;;;14.70;83.50;;;13.27;79.96;98218.13;5098434;28;20467;-83
2021/08/09 05:26:57;;;;;;;6.90;4.27;;;15.30;80.80;;;13.62;79.04;98219.38;5079883;28;20463;-81
2021/08/09 05:29:24;;;;;;;4.60;3.90;;;16.10;77.40;;;14.01;77.68;98229.88;5097953;28;20471;-82
2021/08/09 05:31:51;;;;;;;4.70;3.87;;;16.60;73.80;;;14.35;76.21;98235.63;5100008;28;20503;-83
2021/08/09 05:34:18;;;;;;;4.80;3.53;;;17.20;71.00;;;13.97;75.18;98198.81;5109262;28;20439;-84
2021/08/09 05:36:47;;;;;;;4.23;3.53;;;17.10;69.70;;;14.73;74.03;98239.78;5109721;28;20455;-83
2021/08/09 05:39:14;;;;;;;4.00;3.53;;;17.60;68.60;;;14.88;72.67;98224.88;5101427;28;21065;-84
2021/08/09 05:41:41;;;;;;;3.77;3.47;;;17.90;67.00;;;15.12;72.81;98241.16;5096066;28;20444;-83
2021/08/09 05:44:09;;;;;;;4.80;3.93;;;18.00;66.60;;;15.19;71.96;98250.00;5090883;28;20793;-83
2021/08/09 05:46:36;;;;;;;3.17;2.87;;;18.00;66.10;;;15.43;71.46;98255.41;5100963;28;20436;-84
2021/08/09 05:49:04;;;;;;;4.70;3.70;;;18.00;65.80;;;15.18;72.30;98253.81;5103548;28;20892;-83
2021/08/09 05:51:34;;;;;;;3.80;3.30;;;17.90;66.00;;;15.19;71.71;98250.00;5102165;28;20475;-84
2021/08/09 05:54:04;;;;;;;7.27;3.80;;;17.90;65.80;;;15.23;70.90;98199.47;5106393;28;20443;-84
2021/08/09 05:56:31;;;;;;;3.90;3.03;;;17.70;66.10;;;15.34;70.60;98191.53;5088045;28;20456;-83
2021/08/09 05:58:58;;;;;;;4.80;3.50;;;17.70;66.40;;;15.55;71.30;98228.97;5074648;28;20452;-83
2021/08/09 06:01:26;;;;;;;5.00;3.57;;;17.70;66.30;;;15.25;72.36;98212.84;5099986;28;20466;-84
2021/08/09 06:03:53;;;;;;;5.10;3.00;;;17.60;66.80;;;15.07;72.82;98222.00;5093459;28;21059;-83
2021/08/09 06:06:20;;;;;;;3.90;3.50;;;17.30;67.20;;;14.66;73.52;98189.28;5099859;28;20454;-83
2021/08/09 06:08:48;;;;;;;3.87;3.57;;;17.00;68.20;;;14.75;73.96;98225.13;5095706;28;20519;-83
2021/08/09 06:11:15;;;;;;;4.00;3.67;;;16.70;69.20;;;14.58;74.61;98218.50;5099280;28;20559;-84
2021/08/09 06:13:42;;;;;;;4.17;3.77;;;16.30;70.50;;;14.52;75.78;98237.63;5104507;28;20443;-84
2021/08/09 06:16:09;;;;;;;5.17;3.60;;;16.00;72.60;;;14.24;76.04;98209.25;5099865;28;22908;-84
2021/08/09 06:18:38;;;;;;;6.67;3.90;;;15.90;74.30;;;14.42;76.38;98233.59;5096230;28;20519;-83
2021/08/09 06:21:07;;;;;;;6.50;4.03;;;15.70;75.70;;;14.40;76.31;98218.59;5097915;28;20547;-84
2021/08/09 06:23:37;;;;;;;9.23;3.90;;;15.80;76.70;;;14.64;76.25;98241.19;5097941;28;20601;-83
2021/08/09 06:26:04;;;;;;;6.27;3.70;;;15.80;77.20;;;14.53;75.85;98233.84;5096920;28;20569;-82
2021/08/09 06:28:31;;;;;;;6.60;4.10;;;15.80;77.10;;;14.54;76.02;98249.09;5099497;28;20454;-83
2021/08/09 06:30:58;;;;;;;3.90;3.50;;;15.80;77.20;;;14.55;75.75;98246.13;5100017;28;20492;-82
2021/08/09 06:33:25;;;;;;;5.33;3.70;;;15.80;77.10;;;14.67;75.52;98257.03;5096398;28;20448;-83
2021/08/09 06:35:53;;;;;;;4.50;3.90;;;15.80;77.20;;;14.50;76.10;98251.44;5092361;28;20547;-82
2021/08/09 06:38:20;;;;;;;6.37;3.90;;;15.70;77.30;;;14.60;75.58;98253.59;5092651;28;20522;-81
2021/08/09 06:40:47;;;;;;;7.47;4.53;;;15.80;78.00;;;14.78;75.09;98246.41;5090542;28;20951;-80
2021/08/09 06:43:14;;;;;;;4.33;3.80;;;15.90;77.50;;;14.85;74.97;98260.72;5098706;28;20540;-80
2021/08/09 06:45:42;;;;;;;8.40;3.90;;;16.00;76.80;;;14.97;75.13;98264.25;5097389;28;20454;-85
2021/08/09 06:48:11;;;;;;;4.10;3.70;;;16.10;77.10;;;14.98;74.38;98244.16;5101342;28;20472;-82
2021/08/09 06:50:38;;;;;;;7.90;3.50;;;16.30;76.70;;;15.24;73.65;98244.69;5094826;28;20459;-86
2021/08/09 06:53:07;;;;;;;4.90;3.50;;;16.40;77.00;;;15.29;73.05;98228.47;5097751;28;20523;-82
2021/08/09 06:55:34;;;;;;;6.80;3.63;;;16.60;76.00;;;15.63;72.79;98257.72;5091580;28;21024;-86
2021/08/09 06:58:01;;;;;;;7.07;4.43;;;16.70;75.50;;;15.89;71.06;98263.66;5095840;28;20472;-86
2021/08/09 07:00:29;;;;;;;3.60;3.30;;;16.80;74.10;;;15.90;69.36;98257.13;5091959;28;20480;-87
2021/08/09 07:02:56;;;;;;;3.30;3.00;;;17.00;72.10;;;16.07;69.08;98249.00;5075720;28;20448;-87
2021/08/09 07:05:23;;;;;;;5.53;3.90;;;17.10;71.20;;;16.05;69.84;98253.88;5076172;28;20547;-88
2021/08/09 07:07:51;;;;;;;7.57;3.33;;;17.20;71.30;;;16.16;69.24;98265.78;5093871;28;20505;-88
2021/08/09 07:10:20;;;;;;;3.30;2.93;;;17.20;70.90;;;16.06;68.91;98271.88;5062015;28;20750;-87
2021/08/09 07:12:48;;;;;;;5.03;2.83;;;17.30;70.40;;;16.35;68.99;98265.53;5098027;28;20472;-86
2021/08/09 07:15:15;;;;;;;6.27;2.77;;;17.40;70.70;;;16.27;68.76;98229.44;5097044;28;20459;-86
2021/08/09 07:17:44;;;;;;;3.60;3.30;;;17.60;70.90;;;16.61;69.26;98266.81;5095835;28;20979;-88
2021/08/09 07:20:14;;;;;;;4.07;3.67;;;17.70;70.90;;;16.60;67.58;98226.94;5078828;28;20462;-87
2021/08/09 07:22:42;;;;;;;6.97;2.80;;;17.70;69.70;;;16.73;66.58;98252.22;5096963;28;21250;-87
2021/08/09 07:25:13;;;;;;;2.57;2.37;;;17.70;69.00;;;16.88;65.97;98252.44;5089428;28;20463;-86
2021/08/09 07:27:43;;;;;;;4.80;3.03;;;17.90;68.40;;;17.21;66.33;98264.41;5076765;28;20458;-87
2021/08/09 07:30:14;;;;;;;5.57;3.17;;;18.10;68.50;;;17.26;64.15;98259.00;5091803;28;20472;-86
2021/08/09 07:32:41;;;;;;;4.33;2.47;;;18.30;67.30;;;17.31;63.55;98265.59;5092924;28;20810;-87
2021/08/09 07:35:11;;;;;;;4.70;3.20;;;18.30;65.60;;;17.38;64.54;98264.34;5093260;28;20448;-83
2021/08/09 07:37:39;;;;;;;3.47;3.07;;;18.40;66.50;;;17.42;63.54;98248.28;5094839;28;20550;-84
2021/08/09 07:40:07;;;;;;;3.83;2.60;;;18.50;65.60;;;17.54;62.54;98254.44;5092795;28;20967;-80
2021/08/09 07:42:34;;;;;;;3.13;2.83;;;18.60;64.70;;;17.44;62.61;98251.56;5099077;28;20499;-80
2021/08/09 07:45:03;;;;;;;4.60;2.90;;;18.70;64.80;;;17.79;63.19;98257.69;5093622;28;20540;-80
2021/08/09 07:47:30;;;;;;;3.03;2.73;;;18.70;65.50;;;17.87;62.53;98251.75;5089742;28;20464;-85
2021/08/09 07:49:58;;;;;;;4.00;2.80;;;18.90;65.10;;;17.83;60.83;98228.78;5071933;28;20575;-85
2021/08/09 07:52:25;;;;;;;4.77;2.67;;;19.00;63.70;;;18.07;61.15;98245.72;5075769;28;20804;-86
2021/08/09 07:54:52;;;;;;;4.07;2.77;;;19.10;64.00;;;18.25;60.63;98249.97;5063581;28;20527;-80
2021/08/09 07:57:19;;;;;;;4.07;2.47;;;19.20;63.60;;;18.38;60.26;98237.75;5110778;28;20451;-81
2021/08/09 07:59:46;;;;;;;7.07;2.90;;;19.40;63.30;;;18.49;61.38;98246.06;5093538;28;20448;-80
2021/08/09 08:02:15;;;;;;;5.30;2.33;;;19.50;64.00;;;18.38;60.47;98242.44;5111153;28;20455;-81
2021/08/09 08:04:43;;;;;;;2.50;2.30;;;19.40;63.00;;;18.58;60.58;98238.19;5110299;28;20487;-81
2021/08/09 08:07:10;;;;;;;2.93;2.50;;;19.50;63.30;;;18.38;59.20;98218.63;5100527;28;20449;-81
2021/08/09 08:09:37;;;;;;;3.20;2.30;;;19.40;62.60;;;18.68;59.75;98251.94;5086539;28;20453;-80
2021/08/09 08:12:06;;;;;;;4.63;2.37;;;19.60;62.90;;;18.72;60.62;98233.06;5094459;28;20436;-81
2021/08/09 08:14:33;;;;;;;4.73;2.83;;;19.70;63.30;;;18.78;59.95;98246.53;5081257;28;20495;-81
2021/08/09 08:17:02;;;;;;;2.70;1.97;;;19.80;62.30;;;18.70;58.40;98233.34;5093778;28;20436;-80
2021/08/09 08:19:30;;;;;;;3.83;2.20;;;19.70;61.50;;;18.87;57.76;98244.13;5094358;28;20455;-81
2021/08/09 08:21:58;;;;;;;2.33;2.13;;;19.80;61.70;;;18.83;57.96;98249.31;5089280;28;20543;-81
2021/08/09 08:24:27;;;;;;;4.07;2.00;;;19.70;61.20;;;18.91;58.01;98253.47;5072256;28;20466;-81
2021/08/09 08:26:54;;;;;;;2.27;2.07;;;19.60;61.20;;;18.48;59.65;98217.06;5098378;28;20435;-85
2021/08/09 08:29:22;;;;;;;3.07;1.83;;;19.60;62.10;;;18.90;59.13;98253.72;5096146;28;20460;-84
2021/08/09 08:31:49;;;;;;;3.13;1.80;;;19.80;62.00;;;19.07;57.88;98268.09;5074530;28;20455;-85
2021/08/09 08:34:16;;;;;;;2.13;2.03;;;20.00;61.00;;;19.18;57.30;98260.75;5103127;28;20490;-80
2021/08/09 08:36:45;;;;;;;6.07;2.53;;;20.20;60.80;;;19.20;57.40;98260.50;5103270;28;20510;-82
2021/08/09 08:39:11;;;;;;;3.60;1.53;;;20.20;60.50;;;19.37;55.99;98263.03;5097903;28;20456;-81
2021/08/09 08:41:43;;;;;;;3.10;1.87;;;20.30;60.00;;;19.64;56.25;98273.03;5097207;28;20470;-81
2021/08/09 08:44:10;;;;;;;4.43;2.07;;;20.50;60.00;;;19.60;55.22;98255.44;5099204;28;20475;-80
2021/08/09 08:46:39;;;;;;;5.40;2.00;;;20.60;59.40;;;19.85;54.83;98267.59;5098539;28;20523;-82
2021/08/09 08:49:08;;;;;;;4.13;2.10;;;20.80;59.50;;;19.65;54.23;98253.53;5100270;28;20436;-82
2021/08/09 08:51:38;;;;;;;2.77;1.87;;;20.70;58.90;;;19.75;53.88;98273.88;5105183;28;20469;-81
2021/08/09 08:54:07;;;;;;;2.20;1.90;;;20.70;58.30;;;19.90;55.30;98273.06;5107325;28;20440;-80
2021/08/09 08:56:37;;;;;;;2.27;2.07;;;20.80;59.10;;;19.85;55.52;98240.19;5107156;28;20528;-81
2021/08/09 08:59:06;;;;;;;3.10;1.50;;;20.90;59.60;;;20.06;54.04;98277.53;5100584;28;20448;-82
2021/08/09 09:01:35;;;;;;;2.00;1.70;;;21.00;58.90;;;20.00;52.59;98267.66;5095512;28;20437;-80
2021/08/09 09:04:25;;;;;;;8.53;1.90;;;21.00;57.60;;;19.68;52.79;98263.16;5114344;28;20538;-81
2021/08/09 09:07:01;;;;;;;1.43;1.20;;;20.90;57.30;;;19.54;52.69;98252.69;5097203;28;20445;-82
2021/08/09 09:09:33;;;;;;;4.43;1.57;;;20.60;56.90;;;19.88;52.57;98272.53;5103711;28;20513;-81
2021/08/09 09:12:13;;;;;;;1.50;1.40;;;20.70;57.10;;;20.22;51.22;98277.53;5101576;28;20451;-81
2021/08/09 09:14:40;;;;;;;2.70;1.93;;;21.00;56.90;;;20.33;50.86;98272.91;5102534;28;20475;-81
2021/08/09 09:17:07;;;;;;;1.60;1.50;;;21.20;56.80;;;20.24;50.81;98278.09;5104252;28;20513;-80
2021/08/09 09:19:39;;;;;;;1.93;1.67;;;21.20;56.40;;;20.43;51.59;98261.13;5101142;28;20451;-81
2021/08/09 09:22:08;;;;;;;2.80;1.50;;;21.40;56.90;;;20.48;51.68;98274.81;5103755;28;20466;-82
2021/08/09 09:24:47;;;;;;;1.47;1.37;;;21.40;57.20;;;20.24;50.52;98256.16;5093718;28;20491;-81
2021/08/09 09:27:29;;;;;;;4.10;1.77;;;21.40;55.90;;;20.47;50.20;98273.19;5093550;28;20532;-81
2021/08/09 09:29:58;;;;;;;1.60;1.50;;;21.40;55.90;;;20.36;49.56;98247.66;5076144;28;20472;-82
2021/08/09 09:32:27;;;;;;;2.97;2.07;;;21.50;55.50;;;20.75;50.13;98269.03;5095997;28;20463;-82
2021/08/09 09:34:56;;;;;;;2.80;2.00;;;21.60;55.70;;;20.45;48.88;98259.72;5091049;28;20458;-81
2021/08/09 09:37:27;;;;;;;1.80;1.50;;;21.60;54.70;;;20.51;49.41;98252.31;5091176;28;20522;-83
2021/08/09 09:40:06;;;;;;;3.43;1.83;;;21.50;55.20;;;20.55;49.19;98258.91;5093850;28;20477;-81
2021/08/09 09:42:35;;;;;;;2.40;1.83;;;21.60;55.00;;;20.85;49.12;98254.53;5104084;28;20546;-81
2021/08/09 09:45:26;;;;;;;4.77;1.70;;;21.80;55.30;;;20.98;49.88;98244.03;5109634;28;21235;-81
2021/08/09 09:48:03;;;;;;;2.20;2.00;;;22.00;55.70;;;21.02;49.93;98245.97;5105030;28;20456;-81
2021/08/09 09:50:31;;;;;;;1.97;1.60;;;22.10;55.80;;;21.35;48.99;98259.31;5104606;28;20452;-81
2021/08/09 09:53:14;;;;;;;4.07;1.80;;;22.20;55.50;;;21.11;48.63;98235.22;5096016;28;21070;-80
2021/08/09 09:55:44;;;;;;;3.10;1.70;;;22.30;54.70;;;21.19;48.44;98272.28;5098140;28;20472;-81
2021/08/09 09:58:11;;;;;;;2.70;1.83;;;22.10;54.40;;;21.07;47.84;98231.41;5076249;28;20456;-80
2021/08/09 10:00:42;;;;;;;8.60;1.70;;;22.20;54.60;;;21.09;48.44;98251.16;5094218;28;20523;-80
2021/08/09 10:03:11;;;;;;;3.27;2.20;;;22.10;54.50;;;21.42;47.99;98259.81;5093524;28;20552;-81
2021/08/09 10:05:41;;;;;;;1.93;1.73;;;22.20;54.50;;;20.89;46.97;98192.44;5091086;28;20491;-81
2021/08/09 10:08:14;;;;;;;2.00;1.67;;;22.20;53.70;;;21.19;46.84;98258.53;5072375;28;20455;-80
2021/08/09 10:10:46;;;;;;;2.13;1.70;;;22.20;53.60;;;21.26;46.87;98231.59;5093093;28;20463;-80
2021/08/09 10:13:17;;;;;;;2.53;1.57;;;22.20;53.70;;;21.39;47.31;98238.41;5097150;28;20471;-81
2021/08/09 10:15:44;;;;;;;1.70;1.57;;;22.30;53.80;;;21.65;47.38;98249.28;5100357;28;20569;-81
2021/08/09 10:18:12;;;;;;;1.90;1.73;;;22.50;54.10;;;21.79;46.48;98239.34;5099038;28;20481;-81
2021/08/09 10:20:39;;;;;;;2.03;1.63;;;22.70;53.90;;;21.77;46.66;98237.97;5107176;28;20436;-82
2021/08/09 10:23:06;;;;;;;2.92;1.70;;;22.70;54.00;;;21.87;46.70;98235.19;5106662;28;21121;-85
2021/08/09 10:25:46;;;;;;;2.73;2.03;;;22.90;53.80;;;22.03;46.50;98252.38;5106949;28;20284;-82
2021/08/09 10:28:14;;;;;;;2.23;1.80;;;22.90;53.90;;;21.89;46.11;98251.38;5102872;28;20459;-84